Time;durP1;ratioP1;P1;durP2;ratioP2;P2;SDS_P1;SDS_P2;PMS_P1;PMS_P2;Temp;Humidity;BMP_temperature;BMP_pressure;BME280_temperature;BME280_humidity;BME280_pressure;Samples;Min_cycle;Max_cycle;Signal;HPM_P1;HPM_P2
2022/10/04 00:02:34;;;;;;;2.15;1.85;;;;;;;10.66;81.30;63102.50;4949193;29;20229;-82
2022/10/04 00:05:05;;;;;;;2.38;2.17;;;;;;;10.70;82.10;63106.13;4951148;29;20237;-80
2022/10/04 00:07:38;;;;;;;1.38;1.38;;;;;;;10.57;81.95;63090.63;4950732;29;20261;-80
2022/10/04 00:10:17;;;;;;;1.40;1.40;;;;;;;10.56;83.84;63087.03;4950394;29;20226;-80
2022/10/04 00:12:48;;;;;;;1.80;1.70;;;;;;;10.53;84.62;63086.00;4951856;29;20277;-81
2022/10/04 00:15:20;;;;;;;5.30;1.20;;;;;;;10.40;84.38;63071.03;4951356;29;20201;-80
2022/10/04 00:18:02;;;;;;;4.38;1.52;;;;;;;10.38;84.70;63070.97;4950264;29;20581;-81
2022/10/04 00:21:02;;;;;;;1.38;1.27;;;;;;;10.38;85.67;63071.50;4945711;29;20219;-80
2022/10/04 00:23:46;;;;;;;2.00;1.73;;;;;;;10.41;86.00;63072.06;4953452;29;20224;-82
2022/10/04 00:26:49;;;;;;;1.50;1.50;;;;;;;10.37;85.98;63067.41;4949186;29;20236;-81
2022/10/04 00:29:31;;;;;;;1.80;1.70;;;;;;;10.34;85.66;63064.81;4919718;29;20213;-81
2022/10/04 00:32:30;;;;;;;1.63;1.63;;;;;;;10.36;83.55;63069.44;4935036;29;20245;-81
2022/10/04 00:35:00;;;;;;;1.80;1.30;;;;;;;10.46;81.19;63074.16;4905367;29;20241;-80
2022/10/04 00:37:32;;;;;;;1.38;1.35;;;;;;;10.32;79.97;63065.28;4938681;29;20238;-81
2022/10/04 00:40:13;;;;;;;1.40;1.40;;;;;;;10.28;79.53;63061.16;4940940;29;20198;-85
2022/10/04 00:42:50;;;;;;;1.90;1.80;;;;;;;10.39;80.62;63067.44;4937749;29;20232;-84
2022/10/04 00:45:31;;;;;;;3.08;1.70;;;;;;;10.31;81.16;63059.16;4937690;29;20213;-84
2022/10/04 00:48:27;;;;;;;1.30;1.20;;;;;;;10.34;81.87;63066.81;4951336;29;20232;-81
2022/10/04 00:50:58;;;;;;;1.23;1.23;;;;;;;10.24;80.43;63051.91;4953402;29;20233;-81
2022/10/04 00:53:44;;;;;;;1.60;1.50;;;;;;;10.03;79.19;63035.25;4954869;29;20254;-81
2022/10/04 00:56:17;;;;;;;1.90;1.65;;;;;;;10.05;80.34;63037.31;4948967;29;20213;-82
2022/10/04 00:59:03;;;;;;;1.75;1.45;;;;;;;10.10;79.79;63036.91;4954950;29;20221;-79
2022/10/04 01:01:34;;;;;;;1.27;1.00;;;;;;;10.17;79.27;63046.69;4954800;29;20203;-80
2022/10/04 01:04:03;;;;;;;0.80;0.80;;;;;;;10.05;78.91;63034.25;4951368;29;20198;-80
2022/10/04 01:06:32;;;;;;;1.42;1.33;;;;;;;9.98;79.84;63027.53;4952490;29;20210;-80
2022/10/04 01:09:04;;;;;;;1.00;1.00;;;;;;;10.03;79.60;63034.72;4955583;29;20213;-79
2022/10/04 01:11:38;;;;;;;1.35;1.35;;;;;;;9.94;80.39;63023.41;4952843;29;20239;-79
2022/10/04 01:14:11;;;;;;;1.95;1.48;;;;;;;9.94;80.39;63023.41;4954304;29;20204;-80
2022/10/04 01:16:38;;;;;;;1.60;1.50;;;;;;;9.88;80.34;63017.19;4956776;29;20209;-80
2022/10/04 01:19:28;;;;;;;1.30;1.20;;;;;;;9.86;80.95;63014.59;4955518;29;20201;-82
2022/10/04 01:22:08;;;;;;;1.40;1.38;;;;;;;9.82;80.60;63008.44;4951833;29;20222;-80
2022/10/04 01:24:39;;;;;;;0.98;0.98;;;;;;;9.84;79.75;63010.00;4953629;29;20197;-83
2022/10/04 01:27:41;;;;;;;1.10;1.10;;;;;;;9.85;79.79;63016.66;4956769;29;20292;-79
2022/10/04 01:30:12;;;;;;;1.50;1.50;;;;;;;9.91;78.40;63027.94;4934417;29;20230;-79
2022/10/04 01:32:40;;;;;;;2.58;1.70;;;;;;;9.96;77.63;63020.38;4947717;29;20241;-81
2022/10/04 01:35:09;;;;;;;1.40;1.20;;;;;;;9.95;77.82;63021.91;4954569;29;20205;-81
2022/10/04 01:37:38;;;;;;;1.90;1.65;;;;;;;9.88;77.46;63017.19;4952235;29;20245;-82
2022/10/04 01:40:08;;;;;;;1.50;1.40;;;;;;;9.88;76.80;63016.69;4952062;29;20205;-81
2022/10/04 01:42:42;;;;;;;0.98;0.98;;;;;;;9.82;77.09;63013.53;4954544;29;20221;-81
2022/10/04 01:45:14;;;;;;;1.42;1.33;;;;;;;9.85;75.58;63014.09;4953961;29;20376;-83
2022/10/04 01:47:48;;;;;;;1.23;1.23;;;;;;;9.80;77.20;63010.94;4952211;29;20228;-81
2022/10/04 01:50:19;;;;;;;1.48;1.40;;;;;;;9.83;77.25;63011.50;4951830;29;20202;-82
2022/10/04 01:52:50;;;;;;;1.15;1.15;;;;;;;9.72;75.54;63005.72;4952623;29;20265;-80
2022/10/04 01:55:24;;;;;;;1.42;1.33;;;;;;;9.84;75.17;63012.53;4952498;29;20201;-81
2022/10/04 01:57:58;;;;;;;2.33;1.63;;;;;;;9.81;74.51;63015.03;4956053;29;20221;-81
2022/10/04 02:00:26;;;;;;;1.90;1.80;;;;;;;9.86;74.69;63014.59;4951904;29;20272;-80
2022/10/04 02:02:58;;;;;;;1.05;1.05;;;;;;;9.76;75.43;63007.34;4951648;29;20320;-81
2022/10/04 02:05:30;;;;;;;1.25;1.15;;;;;;;9.70;76.41;62998.06;4953451;29;20201;-79
2022/10/04 02:08:01;;;;;;;0.90;0.90;;;;;;;9.72;77.41;63000.66;4948387;29;20226;-80
2022/10/04 02:10:32;;;;;;;2.50;1.25;;;;;;;9.76;78.21;63004.78;4951545;29;20209;-82
2022/10/04 02:13:00;;;;;;;1.05;1.05;;;;;;;9.73;78.37;63004.22;4955614;28;20601;-80
2022/10/04 02:15:28;;;;;;;1.05;1.05;;;;;;;9.81;78.15;63011.97;4952909;29;20221;-81
2022/10/04 02:17:57;;;;;;;0.90;0.90;;;;;;;9.69;78.62;63002.63;4950337;29;20272;-81
2022/10/04 02:20:26;;;;;;;1.10;1.10;;;;;;;9.73;79.63;63006.78;4951456;29;20209;-81
2022/10/04 02:22:58;;;;;;;1.13;1.02;;;;;;;9.72;81.98;63000.13;4954800;29;20217;-81
2022/10/04 02:25:26;;;;;;;1.05;1.05;;;;;;;9.73;83.58;63001.69;4950861;29;20205;-81
2022/10/04 02:27:55;;;;;;;3.13;1.20;;;;;;;9.69;85.17;62997.53;4951659;29;20229;-80
2022/10/04 02:30:22;;;;;;;1.00;0.80;;;;;;;9.68;85.73;62996.50;4952197;29;20268;-81
2022/10/04 02:32:59;;;;;;;1.70;1.40;;;;;;;9.68;86.45;62996.50;4951544;29;20241;-80
2022/10/04 02:35:34;;;;;;;1.65;1.30;;;;;;;9.60;86.17;62988.22;4952985;29;20272;-84
2022/10/04 02:38:12;;;;;;;1.20;1.20;;;;;;;9.70;86.13;62998.06;4954056;29;20224;-82
2022/10/04 02:40:47;;;;;;;1.17;1.02;;;;;;;9.70;86.45;63001.13;4953435;29;20506;-80
2022/10/04 02:43:25;;;;;;;0.90;0.90;;;;;;;9.68;86.92;62999.03;4953075;29;20461;-81
2022/10/04 02:46:01;;;;;;;1.30;1.20;;;;;;;9.54;88.64;62984.59;4953683;29;20211;-80
2022/10/04 02:48:37;;;;;;;1.00;1.00;;;;;;;9.71;89.14;63004.69;4953457;29;20217;-79
2022/10/04 02:51:18;;;;;;;1.33;1.33;;;;;;;9.71;89.87;63004.19;4952935;29;20212;-80
2022/10/04 02:53:56;;;;;;;5.03;1.60;;;;;;;9.77;89.44;63005.28;4951517;29;20247;-80
2022/10/04 02:56:25;;;;;;;1.40;1.25;;;;;;;9.76;89.56;63001.72;4953784;29;20190;-78
2022/10/04 02:58:54;;;;;;;1.45;1.35;;;;;;;9.78;88.84;63008.88;4948336;29;20225;-78
2022/10/04 03:01:29;;;;;;;2.30;1.73;;;;;;;9.79;88.25;63012.97;4950312;28;20190;-78
2022/10/04 03:03:57;;;;;;;1.73;1.48;;;;;;;9.60;88.23;62987.72;4950293;29;20221;-79
2022/10/04 03:06:31;;;;;;;1.75;1.52;;;;;;;9.65;89.83;62995.94;4951061;29;20443;-79
2022/10/04 03:09:02;;;;;;;1.70;1.42;;;;;;;9.74;89.98;63009.81;4950410;29;20221;-77
2022/10/04 03:11:33;;;;;;;2.63;1.50;;;;;;;9.68;91.08;62993.97;4946802;29;20588;-78
2022/10/04 03:14:04;;;;;;;1.30;1.20;;;;;;;9.69;91.11;63002.09;4949971;29;20509;-77
2022/10/04 03:16:35;;;;;;;1.70;1.60;;;;;;;9.71;91.42;63002.16;4948313;29;20237;-77
2022/10/04 03:19:03;;;;;;;1.48;1.48;;;;;;;9.64;90.57;62991.84;4950771;29;20234;-79
2022/10/04 03:21:32;;;;;;;1.67;1.58;;;;;;;9.65;90.63;63001.03;4948227;29;20268;-80
2022/10/04 03:24:00;;;;;;;1.25;1.23;;;;;;;9.66;90.61;62993.94;4948394;29;20319;-81
2022/10/04 03:26:32;;;;;;;3.17;1.80;;;;;;;9.57;90.47;62984.63;4961607;29;20204;-80
2022/10/04 03:29:00;;;;;;;1.38;1.27;;;;;;;9.58;88.77;62988.69;4958378;29;20224;-79
2022/10/04 03:31:29;;;;;;;1.40;1.40;;;;;;;9.55;87.88;62985.09;4949495;29;20240;-78
2022/10/04 03:33:58;;;;;;;1.42;1.42;;;;;;;9.68;86.52;63003.63;4948995;29;20221;-79
2022/10/04 03:36:27;;;;;;;2.33;1.30;;;;;;;9.61;85.81;62989.25;4946638;29;20213;-79
2022/10/04 03:38:57;;;;;;;1.17;1.17;;;;;;;9.61;85.68;62983.69;4939679;29;20509;-80
2022/10/04 03:41:25;;;;;;;1.00;1.00;;;;;;;9.59;84.83;62987.22;4950271;29;20205;-79
2022/10/04 03:43:55;;;;;;;1.83;1.20;;;;;;;9.55;84.63;62985.09;4948892;29;20244;-80
2022/10/04 03:46:24;;;;;;;1.30;1.10;;;;;;;9.61;85.04;62991.81;4951836;29;20208;-79
2022/10/04 03:48:55;;;;;;;3.50;0.93;;;;;;;9.57;85.09;62987.69;4946769;29;20529;-79
2022/10/04 03:51:24;;;;;;;1.20;1.20;;;;;;;9.56;85.63;62984.09;4950279;29;20212;-79
2022/10/04 03:53:54;;;;;;;2.08;1.55;;;;;;;9.54;86.65;62981.53;4948500;29;20534;-80
2022/10/04 03:56:26;;;;;;;1.70;1.35;;;;;;;9.49;88.58;62976.34;4948076;29;20205;-79
2022/10/04 03:58:54;;;;;;;2.47;1.27;;;;;;;9.52;87.59;62977.44;4949371;29;20225;-79
2022/10/04 04:01:34;;;;;;;2.78;1.60;;;;;;;9.51;88.82;62981.47;4958531;28;20272;-79
2022/10/04 04:04:12;;;;;;;1.20;1.20;;;;;;;9.52;89.45;62979.44;4951875;29;20278;-79
2022/10/04 04:06:44;;;;;;;2.83;1.80;;;;;;;9.49;89.99;62984.47;4962771;28;20222;-79
2022/10/04 04:09:19;;;;;;;1.60;1.55;;;;;;;9.47;90.47;62979.88;4968500;28;20276;-80
2022/10/04 04:11:50;;;;;;;1.40;1.40;;;;;;;9.44;90.44;62973.72;4972301;29;20223;-79
2022/10/04 04:14:22;;;;;;;2.10;1.80;;;;;;;9.50;89.45;62972.81;4954162;29;20209;-80
2022/10/04 04:16:49;;;;;;;1.70;1.60;;;;;;;9.49;89.01;62976.34;4970382;28;20469;-76
2022/10/04 04:19:22;;;;;;;1.40;1.35;;;;;;;9.44;88.05;62969.13;4971104;29;20217;-78
2022/10/04 04:21:50;;;;;;;1.55;1.45;;;;;;;9.41;89.26;62970.59;4971299;28;20244;-77
2022/10/04 04:24:24;;;;;;;1.88;1.77;;;;;;;9.45;88.31;62969.66;4967738;29;20263;-77
2022/10/04 04:26:55;;;;;;;3.70;1.60;;;;;;;9.48;85.94;62977.84;4964693;29;20209;-78
2022/10/04 04:29:26;;;;;;;1.95;1.85;;;;;;;9.47;85.91;62977.34;4969593;29;20211;-77
2022/10/04 04:31:58;;;;;;;1.38;1.38;;;;;;;9.47;85.28;62976.81;4969215;29;20417;-78
2022/10/04 04:34:29;;;;;;;1.80;1.70;;;;;;;9.49;85.08;62976.84;4955577;29;20216;-76
2022/10/04 04:36:59;;;;;;;1.90;1.55;;;;;;;9.56;85.20;62986.13;4969232;29;20464;-77
2022/10/04 04:39:36;;;;;;;1.60;1.50;;;;;;;9.54;84.72;62984.06;4968389;29;20208;-76
2022/10/04 04:42:07;;;;;;;1.77;1.67;;;;;;;9.48;85.66;62970.75;4967506;28;20224;-77
2022/10/04 04:44:34;;;;;;;3.25;1.65;;;;;;;9.55;86.73;62985.09;4959980;29;20225;-77
2022/10/04 04:47:08;;;;;;;2.38;1.90;;;;;;;9.67;85.34;62998.00;4961832;28;20545;-78
2022/10/04 04:49:39;;;;;;;2.38;2.20;;;;;;;9.69;84.85;62999.56;4970289;29;20212;-77
2022/10/04 04:52:16;;;;;;;1.83;1.73;;;;;;;9.72;84.70;63000.13;4966266;28;20248;-77
2022/10/04 04:54:45;;;;;;;3.47;1.77;;;;;;;9.80;84.16;63008.91;4965834;29;20256;-78
2022/10/04 04:57:16;;;;;;;2.35;2.25;;;;;;;9.80;84.94;63008.91;4967673;28;20227;-77
2022/10/04 04:59:46;;;;;;;2.50;1.90;;;;;;;9.77;85.48;63008.34;4950376;29;20487;-77
2022/10/04 05:02:28;;;;;;;2.35;2.05;;;;;;;9.76;85.64;63004.25;4954683;28;20224;-79
2022/10/04 05:05:16;;;;;;;2.10;2.00;;;;;;;9.73;86.45;63001.69;4961446;29;20204;-78
2022/10/04 05:07:43;;;;;;;2.10;2.08;;;;;;;9.69;87.42;62999.56;4968895;29;20235;-78
2022/10/04 05:10:21;;;;;;;2.17;2.08;;;;;;;9.87;86.55;63016.16;4964923;29;20557;-77
2022/10/04 05:12:49;;;;;;;2.15;2.00;;;;;;;9.98;85.54;63030.09;4966340;28;20236;-77
2022/10/04 05:15:16;;;;;;;1.85;1.75;;;;;;;10.07;85.96;63031.78;4971211;29;20211;-77
2022/10/04 05:17:43;;;;;;;1.83;1.80;;;;;;;10.15;86.29;63047.69;4967203;28;20419;-78
2022/10/04 05:20:13;;;;;;;1.70;1.60;;;;;;;10.15;86.56;63045.16;4956037;29;20268;-76
2022/10/04 05:22:45;;;;;;;1.85;1.80;;;;;;;10.26;85.68;63059.09;4950990;29;20285;-78
2022/10/04 05:25:18;;;;;;;1.85;1.75;;;;;;;10.40;84.89;63070.50;4965598;29;20220;-78
2022/10/04 05:27:45;;;;;;;4.32;1.83;;;;;;;10.57;83.37;63092.66;4960439;28;20225;-80
2022/10/04 05:30:30;;;;;;;3.72;1.67;;;;;;;10.66;82.29;63097.41;4968497;29;20225;-77
2022/10/04 05:33:01;;;;;;;2.00;1.90;;;;;;;10.54;82.88;63081.94;4966216;29;20258;-77
2022/10/04 05:35:29;;;;;;;1.95;1.85;;;;;;;10.40;83.51;63075.59;4968210;29;20272;-77
2022/10/04 05:38:08;;;;;;;1.77;1.70;;;;;;;10.33;83.38;63066.31;4959192;28;20253;-77
2022/10/04 05:40:43;;;;;;;2.10;1.98;;;;;;;10.13;85.17;63040.03;4949493;29;20506;-75
2022/10/04 05:43:30;;;;;;;2.15;1.73;;;;;;;10.11;85.78;63043.53;4964483;28;20236;-77
2022/10/04 05:46:18;;;;;;;2.10;2.00;;;;;;;10.12;86.22;63044.59;4952947;29;20197;-77
2022/10/04 05:48:47;;;;;;;1.77;1.75;;;;;;;10.22;85.08;63054.94;4948700;29;20565;-79
2022/10/04 05:51:19;;;;;;;1.80;1.70;;;;;;;10.29;84.58;63059.63;4955780;29;20220;-76
2022/10/04 05:53:48;;;;;;;2.58;1.70;;;;;;;10.40;82.50;63070.50;4966133;28;20225;-76
2022/10/04 05:56:39;;;;;;;1.80;1.70;;;;;;;10.31;82.77;63066.78;4962257;29;20412;-76
2022/10/04 05:59:15;;;;;;;3.13;1.65;;;;;;;10.29;83.00;63056.56;4967658;29;20201;-76
2022/10/04 06:01:51;;;;;;;1.70;1.60;;;;;;;10.15;84.43;63040.06;4962612;29;20200;-77
2022/10/04 06:04:32;;;;;;;2.35;2.25;;;;;;;10.25;83.81;63055.50;4965984;28;20196;-77
2022/10/04 06:07:04;;;;;;;1.92;1.83;;;;;;;10.35;82.22;63065.84;4964966;28;20231;-76
2022/10/04 06:09:51;;;;;;;1.90;1.83;;;;;;;10.46;81.36;63077.22;4962310;29;20204;-77
2022/10/04 06:12:31;;;;;;;1.85;1.75;;;;;;;10.34;82.40;63069.91;4966265;28;20665;-78
2022/10/04 06:15:16;;;;;;;1.60;1.60;;;;;;;10.39;80.96;63069.44;4959685;29;20402;-77
2022/10/04 06:18:06;;;;;;;2.00;1.90;;;;;;;10.41;81.20;63077.13;4964493;28;20252;-78
2022/10/04 06:20:54;;;;;;;1.95;1.85;;;;;;;10.21;81.18;63048.81;4961415;29;20526;-77
2022/10/04 06:23:26;;;;;;;1.60;1.60;;;;;;;10.24;81.32;63056.47;4961815;28;20228;-76
2022/10/04 06:25:58;;;;;;;1.20;1.20;;;;;;;10.35;79.42;63067.88;4963452;29;20469;-77
2022/10/04 06:28:31;;;;;;;1.75;1.75;;;;;;;10.42;80.01;63067.47;4963112;28;20225;-76
2022/10/04 06:31:18;;;;;;;1.55;1.45;;;;;;;10.63;78.19;63096.84;4963972;29;20219;-76
2022/10/04 06:34:07;;;;;;;1.73;1.52;;;;;;;10.71;78.30;63102.59;4966005;28;20228;-77
2022/10/04 06:36:51;;;;;;;1.90;1.90;;;;;;;10.81;77.17;63112.94;4966976;29;20297;-79
2022/10/04 06:39:41;;;;;;;1.80;1.70;;;;;;;10.89;75.29;63125.81;4961183;29;20199;-80
2022/10/04 06:42:56;;;;;;;1.60;1.52;;;;;;;10.97;75.12;63132.06;4959712;28;20300;-77
2022/10/04 06:45:38;;;;;;;1.65;1.55;;;;;;;10.93;75.25;63127.91;4968926;29;20205;-77
2022/10/04 06:48:29;;;;;;;1.80;1.70;;;;;;;11.10;74.30;63144.97;4967185;28;20256;-76
2022/10/04 06:51:03;;;;;;;1.65;1.65;;;;;;;11.30;72.35;63168.75;4964335;28;20212;-76
2022/10/04 06:53:41;;;;;;;1.58;1.58;;;;;;;11.23;73.00;63156.41;4953005;29;20240;-76
2022/10/04 06:56:38;;;;;;;1.48;1.48;;;;;;;11.47;71.62;63183.31;4956380;29;20200;-77
2022/10/04 06:59:23;;;;;;;1.77;1.67;;;;;;;11.73;69.05;63204.66;4955889;29;20207;-77
2022/10/04 07:01:52;;;;;;;1.38;1.38;;;;;;;11.74;68.41;63215.88;4957515;28;20240;-77
2022/10/04 07:04:31;;;;;;;1.60;1.60;;;;;;;11.62;69.78;63201.94;4964380;29;20205;-77
2022/10/04 07:07:25;;;;;;;3.03;1.00;;;;;;;11.72;67.73;63211.28;4954864;29;20228;-78
2022/10/04 07:09:56;;;;;;;3.03;1.45;;;;;;;11.71;68.84;63210.22;4963362;29;20205;-80
2022/10/04 07:12:24;;;;;;;1.42;1.42;;;;;;;11.75;68.61;63214.91;4967732;28;20220;-79
2022/10/04 07:14:59;;;;;;;6.63;1.95;;;;;;;11.81;69.71;63221.09;4966618;29;20204;-78
2022/10/04 07:17:32;;;;;;;1.63;1.63;;;;;;;11.70;70.37;63204.59;4968542;28;20282;-77
2022/10/04 07:20:01;;;;;;;5.43;1.75;;;;;;;11.84;69.76;63218.59;4968159;29;20502;-78
2022/10/04 07:22:32;;;;;;;2.85;1.60;;;;;;;11.89;69.80;63228.88;4955763;29;20229;-77
2022/10/04 07:25:13;;;;;;;1.90;1.80;;;;;;;11.64;71.96;63198.41;4965139;29;20240;-78
2022/10/04 07:29:19;;;;;;;3.88;2.08;;;;;;;11.72;71.13;63206.69;4967139;28;20298;-79
2022/10/04 07:30:47;;;;;;;1.95;1.85;;;;;;;11.41;73.05;63174.53;4964341;29;20445;-78
2022/10/04 07:33:20;;;;;;;1.85;1.73;;;;;;;11.47;71.41;63178.75;4961454;28;20231;-78
2022/10/04 07:35:51;;;;;;;3.95;2.20;;;;;;;11.47;73.52;63183.31;4968960;29;20231;-78
2022/10/04 07:38:23;;;;;;;4.72;1.83;;;;;;;11.59;73.27;63190.66;4968367;28;20223;-77
2022/10/04 07:41:06;;;;;;;2.45;1.85;;;;;;;11.82;69.88;63217.03;4958405;29;20217;-79
2022/10/04 07:43:36;;;;;;;1.83;1.70;;;;;;;11.78;68.26;63214.94;4965952;29;20232;-79
2022/10/04 07:46:17;;;;;;;1.70;1.60;;;;;;;11.95;66.51;63227.44;4971287;29;20196;-78
2022/10/04 07:48:47;;;;;;;1.58;1.48;;;;;;;12.12;65.76;63253.22;4969564;29;20252;-77
2022/10/04 07:51:19;;;;;;;1.70;1.70;;;;;;;12.13;66.17;63248.66;4974151;29;20189;-77
2022/10/04 07:53:53;;;;;;;1.48;1.48;;;;;;;12.05;65.02;63242.91;4962904;28;20292;-78
2022/10/04 07:56:26;;;;;;;1.60;1.60;;;;;;;12.01;66.45;63233.66;4970869;29;20205;-79
2022/10/04 07:59:07;;;;;;;1.70;1.70;;;;;;;12.04;64.61;63239.31;4965206;28;20418;-77
2022/10/04 08:01:43;;;;;;;1.70;1.70;;;;;;;12.20;65.55;63258.47;4969434;28;20200;-77
2022/10/04 08:04:17;;;;;;;1.75;1.65;;;;;;;11.89;67.17;63223.78;4973365;29;20224;-76
2022/10/04 08:06:55;;;;;;;1.92;1.85;;;;;;;12.13;65.95;63251.22;4972464;28;20279;-77
2022/10/04 08:09:52;;;;;;;2.45;1.88;;;;;;;11.94;66.95;63228.97;4954036;29;20208;-77
2022/10/04 08:12:25;;;;;;;3.70;2.05;;;;;;;12.14;65.57;63252.75;4953685;29;20454;-79
2022/10/04 08:14:57;;;;;;;4.75;2.17;;;;;;;12.37;64.62;63276.09;4953640;29;20221;-81
2022/10/04 08:17:41;;;;;;;2.03;1.77;;;;;;;12.74;64.53;63312.41;4965856;29;20220;-79
2022/10/04 08:20:25;;;;;;;1.85;1.80;;;;;;;12.68;63.41;63303.13;4972107;29;20213;-77
2022/10/04 08:23:04;;;;;;;2.42;2.03;;;;;;;12.41;64.68;63278.19;4969158;29;20421;-79
2022/10/04 08:25:42;;;;;;;13.68;2.97;;;;;;;12.60;63.07;63297.38;4966916;29;20446;-79
2022/10/04 08:31:23;;;;;;;1.60;1.52;;;;;;;12.70;64.71;63302.63;4970624;29;20559;-76
2022/10/04 08:34:06;;;;;;;3.40;2.15;;;;;;;12.81;62.48;63321.69;4969718;28;20240;-77
2022/10/04 08:36:52;;;;;;;5.10;1.85;;;;;;;12.64;62.40;63298.97;4969000;29;20529;-76
2022/10/04 08:39:41;;;;;;;2.38;1.48;;;;;;;12.89;62.13;63329.50;4969467;29;20197;-77
2022/10/04 08:42:35;;;;;;;1.58;1.50;;;;;;;12.31;64.42;63272.94;4973099;29;20221;-78
2022/10/04 08:45:43;;;;;;;1.30;1.30;;;;;;;12.44;64.35;63281.28;4965073;29;20204;-76
2022/10/04 08:48:41;;;;;;;0.93;0.93;;;;;;;12.31;62.85;63267.81;4965843;28;20230;-76
2022/10/04 08:51:56;;;;;;;1.20;1.10;;;;;;;12.51;63.84;63291.09;4949992;29;20209;-77
2022/10/04 08:55:01;;;;;;;1.42;1.42;;;;;;;12.93;61.92;63333.63;4947731;29;20304;-78
2022/10/04 08:58:18;;;;;;;5.93;1.63;;;;;;;13.08;61.66;63346.66;4970373;28;20223;-75
2022/10/04 09:00:55;;;;;;;1.33;1.33;;;;;;;13.00;60.08;63343.97;4916331;29;20462;-77
2022/10/04 09:04:00;;;;;;;1.13;1.10;;;;;;;12.60;60.90;63297.38;4968668;28;20243;-78
2022/10/04 09:06:45;;;;;;;1.42;1.42;;;;;;;12.69;62.96;63311.81;4937798;29;20205;-76
2022/10/04 09:09:46;;;;;;;1.38;1.38;;;;;;;12.55;61.64;63292.72;4968630;29;20207;-77
2022/10/04 09:12:32;;;;;;;1.20;1.20;;;;;;;12.98;60.68;63338.81;4966014;28;20224;-77
2022/10/04 09:15:24;;;;;;;1.48;1.48;;;;;;;13.24;60.82;63363.25;4972158;29;20296;-76
2022/10/04 09:18:01;;;;;;;1.40;1.30;;;;;;;13.14;59.15;63358.00;4963542;28;20225;-76
2022/10/04 09:20:44;;;;;;;1.90;1.33;;;;;;;13.10;58.43;63348.75;4961803;29;20220;-78
2022/10/04 09:23:54;;;;;;;1.60;1.50;;;;;;;13.23;59.64;63357.63;4967235;28;20299;-75
2022/10/04 09:26:23;;;;;;;1.40;1.40;;;;;;;13.13;59.21;63352.34;4967235;29;20494;-78
2022/10/04 09:29:17;;;;;;;1.65;1.45;;;;;;;13.11;59.83;63350.28;4968635;28;20244;-78
2022/10/04 09:32:39;;;;;;;1.35;1.35;;;;;;;13.15;61.39;63359.03;4969337;28;20501;-77
2022/10/04 09:35:42;;;;;;;1.63;1.63;;;;;;;13.20;61.00;63364.22;4967627;29;20240;-77
2022/10/04 09:38:34;;;;;;;2.08;1.48;;;;;;;13.37;59.25;63379.31;4968710;28;20239;-77
2022/10/04 09:41:22;;;;;;;2.83;2.63;;;;;;;13.18;58.95;63359.59;4966129;29;20200;-76
2022/10/04 09:44:25;;;;;;;1.48;1.38;;;;;;;13.01;60.58;63341.94;4962621;28;20240;-77
2022/10/04 09:47:12;;;;;;;1.30;1.30;;;;;;;13.27;59.03;63366.38;4968888;28;20228;-78
2022/10/04 09:50:17;;;;;;;2.25;1.55;;;;;;;13.43;58.80;63386.03;4966698;29;20284;-76
2022/10/04 09:52:54;;;;;;;1.77;1.35;;;;;;;13.56;58.92;63404.63;4967561;28;20232;-76
2022/10/04 09:55:48;;;;;;;1.38;1.38;;;;;;;13.53;58.62;63395.91;4967710;29;20247;-76
2022/10/04 09:58:35;;;;;;;1.88;1.77;;;;;;;13.58;59.30;63401.59;4962354;28;20231;-76
2022/10/04 10:01:10;;;;;;;1.70;1.60;;;;;;;13.54;59.60;63400.03;4956472;29;20284;-78
2022/10/04 10:04:07;;;;;;;2.17;1.67;;;;;;;13.68;59.41;63411.47;4966629;28;20224;-78
2022/10/04 10:07:09;;;;;;;2.75;1.58;;;;;;;13.67;59.10;63410.41;4959307;28;20505;-76
2022/10/04 10:15:54;;;;;;;1.55;1.50;;;;;;;13.78;57.44;63416.72;4968813;29;20236;-76
2022/10/04 10:18:33;;;;;;;1.67;1.63;;;;;;;13.77;56.24;63418.75;4965758;28;20287;-78
2022/10/04 10:21:18;;;;;;;1.20;1.20;;;;;;;13.84;57.67;63425.50;4967656;29;20231;-77
2022/10/04 10:24:18;;;;;;;1.73;1.50;;;;;;;13.13;60.47;63351.84;4967835;28;20220;-75
2022/10/04 10:27:07;;;;;;;1.90;1.80;;;;;;;13.41;59.89;63380.88;4958300;28;20201;-77
2022/10/04 10:30:07;;;;;;;1.83;1.73;;;;;;;14.07;59.23;63453.97;4948835;29;20210;-77
2022/10/04 10:33:03;;;;;;;8.68;2.35;;;;;;;13.82;58.70;63429.06;4965844;28;20224;-75
2022/10/04 10:35:47;;;;;;;1.88;1.63;;;;;;;13.38;59.79;63375.75;4981472;28;20207;-76
2022/10/04 10:38:44;;;;;;;2.00;1.90;;;;;;;13.62;59.34;63405.22;4953726;28;20229;-75
2022/10/04 10:41:27;;;;;;;1.60;1.50;;;;;;;13.28;58.87;63367.41;4954941;29;20219;-76
2022/10/04 10:44:19;;;;;;;3.65;2.08;;;;;;;13.68;58.69;63409.41;4967637;28;20239;-75
2022/10/04 10:47:07;;;;;;;2.10;1.73;;;;;;;13.89;58.95;63435.84;4963040;29;20280;-78
2022/10/04 10:49:59;;;;;;;2.30;2.20;;;;;;;14.04;59.32;63451.41;4960077;29;20232;-76
2022/10/04 10:53:10;;;;;;;2.20;1.75;;;;;;;14.30;56.83;63475.34;4958973;29;20243;-77
2022/10/04 10:56:17;;;;;;;2.30;2.10;;;;;;;14.49;56.10;63489.94;4962179;29;20208;-75
2022/10/04 10:59:26;;;;;;;2.10;2.00;;;;;;;14.10;57.42;63454.56;4950708;29;20251;-77
2022/10/04 11:02:22;;;;;;;1.80;1.80;;;;;;;14.05;57.78;63452.44;4950491;28;20228;-78
2022/10/04 11:05:07;;;;;;;2.72;1.60;;;;;;;14.73;55.03;63520.00;4967676;29;20212;-78
2022/10/04 11:07:50;;;;;;;1.42;1.42;;;;;;;14.11;55.68;63453.03;4967491;29;20541;-78
2022/10/04 11:10:51;;;;;;;2.05;1.95;;;;;;;14.28;55.79;63470.69;4966679;29;20201;-77
2022/10/04 11:13:56;;;;;;;1.52;1.42;;;;;;;14.49;55.91;63495.06;4967427;28;20299;-78
2022/10/04 11:17:11;;;;;;;1.77;1.75;;;;;;;14.37;55.16;63482.59;4960426;29;20440;-79
2022/10/04 11:20:24;;;;;;;3.33;2.00;;;;;;;14.49;55.64;63495.59;4968657;29;20316;-79
2022/10/04 11:23:24;;;;;;;2.58;2.15;;;;;;;14.57;55.43;63503.38;4953654;29;20224;-79
2022/10/04 11:26:31;;;;;;;2.08;1.80;;;;;;;14.55;55.52;63499.25;4967007;29;20200;-77
2022/10/04 11:29:13;;;;;;;2.25;2.15;;;;;;;14.73;55.04;63517.94;4967248;29;20525;-79
2022/10/04 11:32:19;;;;;;;2.38;1.92;;;;;;;13.94;57.57;63435.91;4965383;29;20200;-77
2022/10/04 11:35:26;;;;;;;1.98;1.92;;;;;;;14.01;57.68;63445.72;4966813;29;20253;-77
2022/10/04 11:38:05;;;;;;;1.95;1.95;;;;;;;13.82;58.01;63428.56;4965661;29;20568;-78
2022/10/04 11:40:54;;;;;;;2.90;2.60;;;;;;;13.58;58.34;63404.16;4964499;29;20259;-76
2022/10/04 11:43:46;;;;;;;1.75;1.75;;;;;;;13.64;59.25;63404.75;4967545;29;20540;-79
2022/10/04 11:46:34;;;;;;;2.60;2.40;;;;;;;13.82;59.26;63423.44;4967551;29;20208;-77
2022/10/04 11:49:13;;;;;;;2.53;1.88;;;;;;;13.98;58.71;63440.03;4962905;29;20204;-76
2022/10/04 11:52:21;;;;;;;1.98;1.88;;;;;;;14.49;56.61;63493.03;4949823;29;20197;-77
2022/10/04 11:55:34;;;;;;;1.92;1.83;;;;;;;14.26;56.92;63471.16;4956915;29;20233;-77
2022/10/04 11:58:09;;;;;;;2.38;2.28;;;;;;;14.37;57.80;63483.13;4949240;29;20576;-76
2022/10/04 12:01:02;;;;;;;2.33;2.22;;;;;;;14.79;54.90;63521.09;4957906;29;20238;-77
2022/10/04 12:04:02;;;;;;;2.25;1.67;;;;;;;14.60;55.31;63503.94;4967436;28;20275;-77
2022/10/04 12:06:45;;;;;;;1.92;1.90;;;;;;;14.61;55.59;63502.94;4968438;29;20189;-77
2022/10/04 12:09:19;;;;;;;1.48;1.48;;;;;;;14.30;55.62;63475.34;4961815;29;20253;-76
2022/10/04 12:12:37;;;;;;;2.67;1.90;;;;;;;13.92;58.36;63431.25;4966385;28;20239;-76
2022/10/04 12:15:37;;;;;;;1.90;1.80;;;;;;;14.56;55.94;63500.31;4953069;29;20275;-77
2022/10/04 12:18:31;;;;;;;2.05;1.95;;;;;;;14.88;55.04;63536.09;4962860;29;20389;-77
2022/10/04 12:21:14;;;;;;;1.92;1.92;;;;;;;15.01;53.81;63549.09;4967126;29;20224;-75
2022/10/04 12:23:53;;;;;;;1.48;1.48;;;;;;;14.45;55.18;63491.44;4965501;28;20532;-78
2022/10/04 12:26:49;;;;;;;1.90;1.90;;;;;;;14.23;56.15;63468.56;4966320;28;20208;-77
2022/10/04 12:29:54;;;;;;;2.40;2.30;;;;;;;14.49;55.61;63493.03;4952751;29;20197;-77
2022/10/04 12:32:27;;;;;;;2.05;1.95;;;;;;;14.00;56.81;63444.16;4939418;28;20520;-77
2022/10/04 12:35:01;;;;;;;1.90;1.75;;;;;;;14.16;56.93;63455.66;4956038;29;20236;-77
2022/10/04 12:37:36;;;;;;;2.13;2.00;;;;;;;14.45;56.19;63488.34;4964762;28;20384;-77
2022/10/04 12:40:19;;;;;;;2.20;1.90;;;;;;;14.51;56.10;63494.59;4970960;29;20200;-77
2022/10/04 12:42:57;;;;;;;1.83;1.73;;;;;;;14.61;55.01;63507.53;4969589;28;20224;-76
2022/10/04 12:45:40;;;;;;;2.42;2.33;;;;;;;14.71;54.35;63517.91;4968565;29;20256;-78
2022/10/04 12:48:22;;;;;;;2.10;2.00;;;;;;;14.93;53.68;63535.63;4950695;29;20475;-78
2022/10/04 12:51:01;;;;;;;2.00;1.85;;;;;;;15.14;53.51;63562.06;4953120;29;20269;-77